Beaver Bay, MN

5:44 AM CDT on September 01, 2015 (GMT -0500)
Silver Bay Safeharbor | | Change Station
CLOSE
Current Station
Personal Weather Station
Location: Silver Bay, MN
Elevation: 607 ft
Nearby Weather Stations

Elev 607 ft 47.27 °N, 91.28 °W | Updated 1 minute ago

Fog
Fog
60.8 °F
Feels Like 60.8 °F
N
0.0
Wind Variable Wind from WNW

Today
High -- | Low -- °F
--% Chance of Precip.
Yesterday
High -- | Low -- °F
Precip. -- in
6:24 AM 7:45 PM
Waning Gibbous, 90% visible
Pressure 29.87 in
Visibility 1.5 miles
Clouds Mostly Cloudy 1800 ft
Dew Point 60 °F
Humidity 98%
Rainfall 0.00 in
Snow Depth Not available.
UV 0 out of 12
Pollen 10.10 out of 12
Air Quality Not available.
Flu Activity Not available.
METAR KBFW 011035Z AUTO 00000KT 1 1/2SM BR BKN018 21/19 A2987 RMK AO2
Pressure 29.87 in
Visibility 1.5 miles
Clouds Mostly Cloudy 1800 ft
Dew Point 60 °F
Humidity 98%
Rainfall 0.00 in
Snow Depth Not available.
UV 0 out of 12
Pollen 10.10 out of 12
Air Quality Not available.
Flu Activity Not available.
METAR KBFW 011035Z AUTO 00000KT 1 1/2SM BR BKN018 21/19 A2987 RMK AO2

10-Day Weather Forecast

×

Almanac

Astronomy

Sep. 01, 2015 Rise Set
Actual Time
Civil Twilight
Nautical Twilight
Astronomical Twilight
Moon
Length of Visible Light
Length of Day
Tomorrow will be .
, % of the Moon is Illuminated

Today's Extremes

State Highs State Lows

Community

WunderPhotos

Upload Photos

1,851,501 photos uploaded!

WunderBlogs® & News

Nearby

Air Quality

  Air Quality AQ Index Pollutant
Not available.

Snow Depth

Station Depth Elevation

Earthquake Activity

City Distance Mag. Time & Date
Minimum magnitude displayed is 2.5.

Coastal Water Temperatures

Place Temperature

Stations

Nearby Weather Stations

Station Location Temp. Windchill Dew Point Humidity Wind Precip. Elev Updated Type